Aérodrome :
LOGIN :

S'inscrire | Disclaimer

   EN    FR    IT 

 










Légende :    VFR   VFR Marginal   IFR   IFR Intensif   IFR Très Intensif
Visi : 
Plafond : 
>= 8 km
>= 3000ft
5 à 8 km
1000 à 3000 ft
1500m à 5 km
500 à 1000 ft
800 à 1500m
200 à 500 ft
< 800m
< 200 ft
Symboles :   Orages  Brouillard  Fortes neiges  Fortes précipitations  Vent > 20 kt
SIGMETs :   Divers  Orages  Givrage  Turbulence  Onde Orograph.  Cendres Volcan.






- Altitude de l'aérodrome : 256 ft
- Code IATA : KUN


EYKA - Kaunas

DERNIER METAR :
  • 140920Z 17007KT 130V200 9999 OVC015 13/10 Q1010 R08/290095

METARs EXPIRÉS :
  • 140850Z 16007KT 120V210 9999 OVC017 12/10 Q1010 R08/290095
  • 140820Z 16009KT 130V200 9999 OVC016 12/09 Q1009 R08/290095
  • 140750Z 15010KT 120V190 9999 OVC018 12/09 Q1009 R08/290095
  • 140720Z 15011KT 120V190 9999 OVC018 12/09 Q1008 R08/290095
  • 140650Z 15010KT 9999 SCT017 OVC023 12/09 Q1008 R08/290095

TAF TAF EYKA
Valide du 14 à 06h jusqu'au 15 à 06h UTC


140504Z 1406/1506 16015KT 9000 OVC020
TEMPO 1406/1409 -RA BKN010
BECMG 1409/1410 27015KT 5000 -RA BR BKN005 OVC010
TEMPO 1410/1415 3000 SHRA BKN015CB
BECMG 1416/1417 9000
FM141800 03010KT
TEMPO 1421/1506 3000 RA BR BKN002



MET'MAP, la Météo Aéronautique d'un coup d'oeil ! - Copyright ORBIFLY Décembre 2007 - Disclaimer

ORBIFLY MET'MAP TEAM :

Programmation & Développement : Alexandra Zaïnal
Conception & Développement : Baudouin d'Aumeries
Co-Programmation & Développement : Marc-Olivier Méhu
Soutien technique & logistique : Manuel Goepfert

Contact : metmap@orbifly.com




SOURCES & CREDITS :

   NOAA